Time;durP1;ratioP1;P1;durP2;ratioP2;P2;SDS_P1;SDS_P2;PMS_P1;PMS_P2;Temp;Humidity;BMP_temperature;BMP_pressure;BME280_temperature;BME280_humidity;BME280_pressure;Samples;Min_cycle;Max_cycle;Signal;HPM_P1;HPM_P2
2022/07/12 00:01:43;;;;;;;5.88;1.67;;;21.80;99.90;;;;;;4996633;28;20034;-73
2022/07/12 00:04:09;;;;;;;6.45;1.65;;;21.80;99.90;;;;;;4992801;28;20452;-73
2022/07/12 00:06:35;;;;;;;2.13;1.50;;;21.80;99.90;;;;;;4991862;28;20034;-73
2022/07/12 00:09:01;;;;;;;2.72;1.50;;;21.80;99.90;;;;;;4991372;28;20030;-74
2022/07/12 00:11:27;;;;;;;2.55;1.60;;;21.80;99.90;;;;;;4993995;28;20038;-73
2022/07/12 00:13:53;;;;;;;4.65;1.40;;;21.80;99.90;;;;;;4992195;28;20026;-73
2022/07/12 00:16:18;;;;;;;3.50;1.60;;;21.80;99.90;;;;;;4993350;28;20026;-74
2022/07/12 00:18:44;;;;;;;2.83;1.55;;;21.80;99.90;;;;;;4993946;28;20386;-74
2022/07/12 00:21:10;;;;;;;2.53;1.50;;;21.80;99.90;;;;;;4992595;28;20146;-74
2022/07/12 00:23:36;;;;;;;2.03;1.35;;;21.80;99.90;;;;;;4994317;28;20433;-74
2022/07/12 00:26:04;;;;;;;5.50;1.83;;;21.80;99.90;;;;;;4989977;28;20023;-74
2022/07/12 00:28:30;;;;;;;3.45;1.60;;;21.80;99.90;;;;;;4993834;28;20023;-74
2022/07/12 00:30:57;;;;;;;4.50;1.50;;;21.90;99.90;;;;;;4994685;28;20038;-74
2022/07/12 00:33:23;;;;;;;3.05;1.60;;;21.90;99.90;;;;;;4992542;28;20030;-74
2022/07/12 00:35:49;;;;;;;4.95;1.58;;;22.00;99.90;;;;;;4992285;28;20034;-74
2022/07/12 00:38:14;;;;;;;2.15;1.33;;;22.10;99.90;;;;;;4985032;28;20030;-74
2022/07/12 00:40:40;;;;;;;3.15;1.42;;;22.10;99.90;;;;;;4993322;28;20034;-74
2022/07/12 00:43:06;;;;;;;2.63;1.75;;;22.20;99.90;;;;;;4983995;28;20022;-74
2022/07/12 00:45:31;;;;;;;3.60;1.58;;;22.30;99.90;;;;;;4986332;28;20448;-74
2022/07/12 00:47:57;;;;;;;2.78;1.73;;;22.40;99.90;;;;;;4993203;28;20022;-74
2022/07/12 00:50:23;;;;;;;3.65;1.50;;;22.40;99.90;;;;;;4992982;28;20044;-74
2022/07/12 00:52:52;;;;;;;1.85;1.42;;;22.40;99.90;;;;;;4992722;28;20023;-74
2022/07/12 00:55:19;;;;;;;2.03;1.48;;;22.50;99.90;;;;;;4992670;28;20034;-74
2022/07/12 00:57:46;;;;;;;3.08;1.60;;;22.50;99.90;;;;;;4984517;28;20034;-74
2022/07/12 01:00:17;;;;;;;6.70;1.65;;;22.50;99.90;;;;;;4992368;28;20018;-73
2022/07/12 01:02:44;;;;;;;2.63;1.30;;;22.50;99.90;;;;;;4992090;28;20054;-73
2022/07/12 01:05:10;;;;;;;3.58;1.67;;;22.50;99.90;;;;;;4992967;28;20026;-73
2022/07/12 01:07:36;;;;;;;2.67;1.50;;;22.60;99.90;;;;;;4984250;28;20045;-74
2022/07/12 01:10:04;;;;;;;2.22;1.40;;;22.50;99.90;;;;;;4987479;28;20037;-74
2022/07/12 01:12:30;;;;;;;2.72;1.70;;;22.60;99.90;;;;;;4992123;28;20031;-73
2022/07/12 01:14:56;;;;;;;2.35;1.27;;;22.60;99.90;;;;;;4992362;28;20026;-73
2022/07/12 01:17:24;;;;;;;2.90;1.48;;;22.60;99.90;;;;;;4992902;28;20034;-73
2022/07/12 01:19:52;;;;;;;3.88;1.52;;;22.50;99.90;;;;;;4988943;28;20076;-74
2022/07/12 01:22:19;;;;;;;1.65;1.42;;;22.50;99.90;;;;;;4991701;28;20520;-74
2022/07/12 01:24:45;;;;;;;1.30;1.13;;;22.50;99.90;;;;;;4988900;28;20038;-75
2022/07/12 01:27:14;;;;;;;1.98;1.48;;;22.50;99.90;;;;;;4991958;28;20053;-74
2022/07/12 01:29:40;;;;;;;3.65;1.75;;;22.50;99.90;;;;;;4980682;28;20117;-73
2022/07/12 01:32:27;;;;;;;1.65;1.50;;;22.50;99.90;;;;;;4993846;28;20114;-74
2022/07/12 01:34:56;;;;;;;1.60;1.50;;;22.40;99.90;;;;;;4992145;28;20109;-74
2022/07/12 01:37:23;;;;;;;2.67;1.65;;;22.40;99.90;;;;;;4990593;28;20100;-74
2022/07/12 01:39:54;;;;;;;2.92;1.60;;;22.30;99.90;;;;;;4992044;28;20030;-74
2022/07/12 01:42:21;;;;;;;2.83;1.70;;;22.20;99.90;;;;;;4990807;28;20077;-73
2022/07/12 01:44:49;;;;;;;1.73;1.50;;;22.20;99.90;;;;;;4991895;28;20108;-73
2022/07/12 01:47:15;;;;;;;4.50;1.85;;;22.20;99.90;;;;;;4980359;28;20030;-74
2022/07/12 01:49:40;;;;;;;2.55;1.45;;;22.20;99.90;;;;;;4990699;28;20030;-73
2022/07/12 01:52:06;;;;;;;1.88;1.70;;;22.20;99.90;;;;;;4990991;28;20026;-73
2022/07/12 01:54:33;;;;;;;2.17;1.60;;;22.20;99.90;;;;;;4990017;28;20101;-73
2022/07/12 01:56:59;;;;;;;3.08;1.60;;;22.20;99.90;;;;;;4990761;28;20022;-74
2022/07/12 01:59:25;;;;;;;1.77;1.40;;;22.10;99.90;;;;;;4984562;28;20072;-74
2022/07/12 02:01:51;;;;;;;13.45;1.85;;;22.10;99.90;;;;;;4992898;28;20031;-74
2022/07/12 02:04:17;;;;;;;3.22;1.65;;;22.10;99.90;;;;;;4991635;28;20058;-74
2022/07/12 02:06:45;;;;;;;1.70;1.35;;;22.00;99.90;;;;;;4990571;28;20054;-74
2022/07/12 02:09:12;;;;;;;3.85;1.52;;;22.00;99.90;;;;;;4989467;28;20030;-73
2022/07/12 02:11:39;;;;;;;1.83;1.42;;;22.00;99.90;;;;;;4991952;28;20034;-74
2022/07/12 02:14:05;;;;;;;3.63;1.70;;;21.90;99.90;;;;;;4993280;28;20023;-74
2022/07/12 02:16:31;;;;;;;2.33;1.70;;;21.90;99.90;;;;;;4991365;28;20164;-74
2022/07/12 02:18:57;;;;;;;3.33;1.50;;;21.80;99.90;;;;;;4984939;28;20030;-73
2022/07/12 02:21:23;;;;;;;2.40;1.52;;;21.80;99.90;;;;;;4981606;28;20386;-74
2022/07/12 02:23:49;;;;;;;2.63;1.45;;;21.70;99.90;;;;;;4989267;28;20105;-74
2022/07/12 02:26:15;;;;;;;8.57;1.80;;;21.70;99.90;;;;;;4990134;28;20026;-74
2022/07/12 02:28:41;;;;;;;2.60;1.73;;;21.70;99.90;;;;;;4991518;28;20033;-74
2022/07/12 02:31:07;;;;;;;4.13;1.90;;;21.70;99.90;;;;;;4992854;28;20034;-74
2022/07/12 02:33:32;;;;;;;9.35;1.88;;;21.70;99.90;;;;;;4992079;28;20638;-74
2022/07/12 02:35:58;;;;;;;1.40;1.30;;;21.60;99.90;;;;;;4991381;28;20117;-74
2022/07/12 02:38:24;;;;;;;1.33;1.23;;;21.60;99.90;;;;;;4989895;28;20037;-74
2022/07/12 02:40:55;;;;;;;4.40;2.25;;;21.60;99.90;;;;;;4993583;28;20033;-74
2022/07/12 02:43:29;;;;;;;2.53;1.73;;;21.50;99.90;;;;;;4999932;28;20018;-74
2022/07/12 02:46:02;;;;;;;5.80;1.73;;;21.50;99.90;;;;;;4989594;28;20094;-74
2022/07/12 02:48:28;;;;;;;3.08;1.95;;;21.50;99.90;;;;;;4991418;28;20034;-74
2022/07/12 02:50:54;;;;;;;3.97;2.08;;;21.40;99.90;;;;;;4990972;28;20039;-74
2022/07/12 02:53:20;;;;;;;3.47;1.92;;;21.40;99.90;;;;;;4990529;28;20054;-74
2022/07/12 02:55:46;;;;;;;4.70;2.00;;;21.40;99.90;;;;;;4989491;28;20045;-74
2022/07/12 02:58:14;;;;;;;4.93;1.95;;;21.40;99.90;;;;;;4991700;28;20027;-74
2022/07/12 03:00:40;;;;;;;3.17;2.25;;;21.30;99.90;;;;;;4992866;28;20037;-74
2022/07/12 03:03:09;;;;;;;2.63;2.13;;;21.30;99.90;;;;;;4991644;28;20085;-74
2022/07/12 03:05:35;;;;;;;3.42;2.05;;;21.30;99.90;;;;;;4990920;28;20072;-74
2022/07/12 03:08:02;;;;;;;5.38;2.25;;;21.20;99.90;;;;;;4990212;28;20051;-74
2022/07/12 03:10:28;;;;;;;3.08;1.90;;;21.20;99.90;;;;;;4989556;28;20030;-74
2022/07/12 03:12:53;;;;;;;2.72;2.03;;;21.20;99.90;;;;;;4999451;28;20037;-74
2022/07/12 03:15:19;;;;;;;2.90;1.77;;;21.20;99.90;;;;;;4995348;28;20034;-74
2022/07/12 03:17:45;;;;;;;8.57;1.80;;;21.10;99.90;;;;;;4993508;28;20556;-75
2022/07/12 03:20:14;;;;;;;2.45;1.45;;;21.10;99.90;;;;;;4994563;28;20045;-75
2022/07/12 03:22:40;;;;;;;4.60;1.60;;;21.10;99.90;;;;;;4995458;28;20027;-75
2022/07/12 03:25:07;;;;;;;3.10;1.50;;;21.20;99.90;;;;;;4993956;28;20026;-74
2022/07/12 03:27:34;;;;;;;3.13;1.60;;;21.20;99.90;;;;;;4993427;28;20152;-74
2022/07/12 03:30:00;;;;;;;5.40;1.55;;;21.20;99.90;;;;;;4994392;28;20095;-74
2022/07/12 03:32:25;;;;;;;1.88;1.48;;;21.20;99.90;;;;;;4984531;28;20031;-74
2022/07/12 03:34:51;;;;;;;2.55;1.55;;;21.30;99.90;;;;;;4992422;28;20112;-74
2022/07/12 03:37:17;;;;;;;14.73;1.70;;;21.30;99.90;;;;;;4991553;28;20037;-74
2022/07/12 03:39:43;;;;;;;2.08;1.40;;;21.40;99.90;;;;;;4984552;28;20394;-74
2022/07/12 03:42:11;;;;;;;2.15;1.27;;;21.40;99.90;;;;;;4996877;28;20045;-74
2022/07/12 03:44:36;;;;;;;2.55;1.50;;;21.50;99.90;;;;;;4994691;28;20022;-74
2022/07/12 03:47:02;;;;;;;4.97;1.27;;;21.60;99.90;;;;;;4993320;28;20126;-74
2022/07/12 03:49:28;;;;;;;3.13;1.15;;;21.60;99.90;;;;;;4992164;28;20082;-74
2022/07/12 03:51:54;;;;;;;4.10;1.50;;;21.70;99.90;;;;;;4994254;28;20065;-74
2022/07/12 03:54:19;;;;;;;4.18;1.48;;;21.70;99.90;;;;;;4991617;28;20100;-74
2022/07/12 03:59:29;;;;;;;3.03;1.52;;;21.80;99.90;;;;;;4995670;28;20041;-74
2022/07/12 04:01:55;;;;;;;2.83;1.48;;;21.80;99.90;;;;;;4986023;28;20031;-73
2022/07/12 04:04:20;;;;;;;5.88;1.60;;;21.80;99.90;;;;;;4994062;28;20124;-73
2022/07/12 04:06:46;;;;;;;2.92;1.50;;;21.90;99.90;;;;;;4992017;28;20022;-73
2022/07/12 04:09:12;;;;;;;2.35;1.20;;;22.00;99.90;;;;;;4993548;28;20450;-73
2022/07/12 04:11:38;;;;;;;1.63;1.40;;;21.90;99.90;;;;;;4995815;28;20042;-73
2022/07/12 04:14:03;;;;;;;4.60;1.70;;;21.90;99.90;;;;;;4994136;28;20045;-74
2022/07/12 04:16:32;;;;;;;2.05;1.40;;;22.00;99.90;;;;;;4987852;28;20035;-73
2022/07/12 04:18:58;;;;;;;2.20;1.33;;;22.10;99.80;;;;;;4990041;28;20034;-74
2022/07/12 04:21:24;;;;;;;1.67;1.30;;;22.10;99.90;;;;;;4994139;28;20019;-73
2022/07/12 04:23:49;;;;;;;1.83;1.50;;;22.20;99.90;;;;;;4993762;28;20026;-74
2022/07/12 04:26:15;;;;;;;4.82;1.45;;;22.20;99.80;;;;;;4993407;28;20022;-74
2022/07/12 04:28:41;;;;;;;1.48;1.30;;;22.40;99.50;;;;;;4992545;28;20022;-73
2022/07/12 04:31:07;;;;;;;3.00;1.27;;;22.40;99.40;;;;;;4995758;28;20046;-74
2022/07/12 04:33:33;;;;;;;3.20;1.65;;;22.50;99.30;;;;;;4994275;28;20118;-75
2022/07/12 04:35:59;;;;;;;1.48;1.35;;;22.50;99.20;;;;;;4993104;28;20552;-75
2022/07/12 04:38:25;;;;;;;2.83;1.65;;;22.60;99.20;;;;;;4992385;28;20164;-75
2022/07/12 04:40:50;;;;;;;3.05;1.33;;;22.70;98.90;;;;;;4994939;28;20105;-74
2022/07/12 04:43:16;;;;;;;2.42;1.58;;;22.70;99.10;;;;;;4993990;28;20113;-74
2022/07/12 04:45:43;;;;;;;3.03;1.38;;;22.80;98.90;;;;;;4991255;28;20023;-74
2022/07/12 04:48:10;;;;;;;3.92;1.50;;;22.90;99.20;;;;;;4984427;28;20033;-76
2022/07/12 04:50:37;;;;;;;1.92;1.25;;;22.90;99.00;;;;;;4991688;28;20034;-74
2022/07/12 04:53:02;;;;;;;1.95;1.38;;;23.00;98.50;;;;;;4984261;28;20030;-75
2022/07/12 04:55:29;;;;;;;3.55;1.50;;;23.00;98.80;;;;;;4983855;28;20038;-75
2022/07/12 04:57:54;;;;;;;5.05;1.67;;;23.00;98.70;;;;;;4993285;28;20037;-74
2022/07/12 05:00:20;;;;;;;7.63;1.38;;;23.10;98.50;;;;;;4991751;28;20035;-74
2022/07/12 05:02:46;;;;;;;1.98;1.58;;;23.10;98.30;;;;;;4995895;28;20441;-73
2022/07/12 05:05:12;;;;;;;5.40;1.35;;;23.20;98.40;;;;;;4992790;28;20027;-74
2022/07/12 05:07:37;;;;;;;6.03;1.50;;;23.30;98.20;;;;;;4993455;28;20025;-73
2022/07/12 05:10:04;;;;;;;3.17;1.50;;;23.40;97.80;;;;;;4992343;28;20030;-74
2022/07/12 05:12:29;;;;;;;3.60;1.30;;;23.50;98.00;;;;;;4995661;28;20034;-73
2022/07/12 05:14:55;;;;;;;1.85;1.50;;;23.50;97.50;;;;;;4992590;28;20456;-74
2022/07/12 05:17:21;;;;;;;4.80;1.30;;;23.60;97.30;;;;;;4991855;28;20039;-75
2022/07/12 05:19:46;;;;;;;2.83;1.40;;;23.70;97.00;;;;;;4992463;28;20384;-75
2022/07/12 05:22:12;;;;;;;3.00;1.63;;;23.70;97.30;;;;;;4992165;28;20022;-75
2022/07/12 05:24:38;;;;;;;2.88;1.40;;;23.70;97.30;;;;;;4991310;28;20034;-74
2022/07/12 05:27:04;;;;;;;3.60;1.77;;;23.70;97.00;;;;;;4990065;28;20056;-76
2022/07/12 05:29:29;;;;;;;2.67;1.42;;;23.70;97.00;;;;;;4991285;28;20031;-76
2022/07/12 05:31:56;;;;;;;3.08;1.17;;;23.60;96.80;;;;;;4993433;28;20125;-75
2022/07/12 05:34:22;;;;;;;4.03;1.40;;;23.60;97.10;;;;;;4992869;28;20022;-75
2022/07/12 05:36:48;;;;;;;5.43;1.48;;;23.60;97.10;;;;;;4990524;28;20780;-76
2022/07/12 05:39:14;;;;;;;12.20;1.80;;;23.60;97.30;;;;;;4991233;28;20448;-76
2022/07/12 05:41:39;;;;;;;3.90;1.25;;;23.50;97.20;;;;;;4994646;28;20030;-74
2022/07/12 05:44:05;;;;;;;2.65;1.40;;;23.60;97.30;;;;;;4991242;28;20472;-75
2022/07/12 05:46:31;;;;;;;4.13;1.30;;;23.60;97.30;;;;;;4989333;28;20034;-75
2022/07/12 05:48:57;;;;;;;2.65;1.58;;;23.60;97.20;;;;;;4989315;28;20110;-74
2022/07/12 05:54:07;;;;;;;4.18;1.25;;;23.60;97.30;;;;;;4989323;28;20555;-75
2022/07/12 05:56:32;;;;;;;7.05;1.73;;;23.60;97.00;;;;;;4986242;28;20038;-76
2022/07/12 05:58:58;;;;;;;9.77;1.65;;;23.70;97.10;;;;;;4987191;28;20026;-75
2022/07/12 06:01:24;;;;;;;4.47;1.40;;;23.70;97.20;;;;;;4992576;28;20081;-77
2022/07/12 06:03:50;;;;;;;1.98;1.50;;;23.70;97.00;;;;;;4990527;28;20054;-77
2022/07/12 06:06:16;;;;;;;5.57;1.50;;;23.70;96.80;;;;;;4989791;28;20035;-78
2022/07/12 06:08:41;;;;;;;2.45;1.50;;;23.90;97.20;;;;;;4990655;28;20034;-81
2022/07/12 06:11:07;;;;;;;3.15;1.70;;;23.80;96.80;;;;;;4990510;28;20034;-88
2022/07/12 06:13:33;;;;;;;2.75;1.33;;;23.90;96.60;;;;;;4989882;28;20029;-84
2022/07/12 06:15:59;;;;;;;13.85;1.75;;;24.00;96.60;;;;;;5001343;28;20030;-78
2022/07/12 06:18:25;;;;;;;3.70;1.70;;;24.10;96.20;;;;;;4991250;28;20515;-77
2022/07/12 06:20:51;;;;;;;1.77;1.55;;;24.30;96.30;;;;;;4989953;28;20449;-80
2022/07/12 06:23:18;;;;;;;4.05;1.50;;;24.40;95.70;;;;;;4988983;28;20030;-80
2022/07/12 06:25:45;;;;;;;3.92;1.42;;;24.60;95.40;;;;;;4992010;28;20077;-83
2022/07/12 06:28:12;;;;;;;3.47;1.27;;;24.80;95.10;;;;;;4992678;28;20014;-81
2022/07/12 06:30:37;;;;;;;1.80;1.13;;;25.00;95.10;;;;;;4991390;28;20721;-81
2022/07/12 06:33:03;;;;;;;2.70;1.45;;;25.20;94.40;;;;;;4985334;28;20021;-84
2022/07/12 06:35:29;;;;;;;1.73;1.30;;;25.40;94.40;;;;;;4989083;28;20500;-76
2022/07/12 06:37:54;;;;;;;2.20;1.48;;;25.50;94.60;;;;;;4990891;28;20061;-77
2022/07/12 06:40:20;;;;;;;5.07;1.50;;;25.70;94.20;;;;;;4989623;28;20122;-76
2022/07/12 06:42:46;;;;;;;4.45;1.40;;;25.80;94.20;;;;;;4987178;28;20022;-74
2022/07/12 06:45:12;;;;;;;3.72;1.20;;;25.90;93.50;;;;;;4990694;28;20073;-83
2022/07/12 06:47:37;;;;;;;3.13;1.20;;;25.90;93.10;;;;;;4988526;28;20049;-75
2022/07/12 06:50:04;;;;;;;1.40;1.17;;;25.90;93.30;;;;;;4988551;28;20038;-76
2022/07/12 06:52:30;;;;;;;4.00;1.25;;;26.00;93.10;;;;;;4994069;28;20014;-74
2022/07/12 06:54:56;;;;;;;9.95;1.58;;;26.10;92.70;;;;;;4995030;28;20037;-73
2022/07/12 06:57:22;;;;;;;2.40;1.25;;;26.30;92.60;;;;;;4995535;28;20022;-72
2022/07/12 06:59:48;;;;;;;3.33;1.25;;;26.40;92.30;;;;;;4995100;28;20080;-74
2022/07/12 07:02:14;;;;;;;2.25;1.08;;;26.50;92.10;;;;;;4993912;28;20042;-73
2022/07/12 07:04:40;;;;;;;2.83;1.40;;;26.60;91.80;;;;;;4994036;28;20031;-73
2022/07/12 07:07:06;;;;;;;3.92;1.30;;;26.70;91.80;;;;;;4994093;28;20416;-73
2022/07/12 07:09:32;;;;;;;4.57;1.55;;;26.70;91.70;;;;;;4992483;28;20325;-74
2022/07/12 07:11:57;;;;;;;2.00;1.42;;;26.60;91.50;;;;;;4992566;28;20466;-73
2022/07/12 07:14:23;;;;;;;2.92;1.40;;;26.50;91.60;;;;;;4990927;28;20023;-74
2022/07/12 07:16:49;;;;;;;8.52;1.85;;;26.40;92.10;;;;;;4991963;28;20129;-74
2022/07/12 07:19:15;;;;;;;15.07;5.10;;;26.20;92.60;;;;;;4992976;28;20038;-73
2022/07/12 07:21:40;;;;;;;33.10;8.65;;;26.10;92.90;;;;;;4989805;28;20120;-77
2022/07/12 07:24:06;;;;;;;155.18;55.17;;;26.00;93.30;;;;;;4992423;28;20117;-76
2022/07/12 07:26:32;;;;;;;28.75;4.85;;;25.90;92.90;;;;;;4991532;28;20077;-76
2022/07/12 07:31:43;;;;;;;5.95;1.50;;;25.90;92.40;;;;;;4992167;28;20052;-75
2022/07/12 07:34:09;;;;;;;2.20;1.30;;;25.90;92.90;;;;;;4991755;28;20026;-75
2022/07/12 07:36:35;;;;;;;2.95;1.65;;;25.90;92.70;;;;;;4990960;28;20034;-75
2022/07/12 07:39:01;;;;;;;2.85;1.40;;;25.90;92.50;;;;;;4992905;28;20019;-74
2022/07/12 07:41:27;;;;;;;2.03;1.25;;;25.90;92.40;;;;;;4994135;28;20116;-73
2022/07/12 07:43:52;;;;;;;5.22;1.40;;;26.00;92.20;;;;;;4992653;28;20053;-74
2022/07/12 07:46:18;;;;;;;1.55;1.05;;;26.00;91.80;;;;;;4989126;28;20498;-74
2022/07/12 07:48:44;;;;;;;4.20;1.40;;;26.00;91.40;;;;;;4988905;28;20023;-72
2022/07/12 07:51:10;;;;;;;2.58;1.30;;;26.00;92.00;;;;;;4987106;28;20034;-74
2022/07/12 07:53:36;;;;;;;5.22;1.67;;;26.00;92.50;;;;;;4992161;28;20489;-72
2022/07/12 07:56:01;;;;;;;5.22;1.70;;;26.00;91.80;;;;;;4992342;28;20018;-73
2022/07/12 07:58:28;;;;;;;2.85;1.48;;;26.00;92.30;;;;;;4985119;28;20073;-76
2022/07/12 08:00:54;;;;;;;11.38;4.22;;;26.00;92.20;;;;;;4990210;28;20042;-76
2022/07/12 08:03:20;;;;;;;12.43;6.57;;;26.00;93.00;;;;;;4987773;28;20078;-76
2022/07/12 08:05:47;;;;;;;4.03;2.20;;;26.00;93.40;;;;;;4990815;28;20022;-77
2022/07/12 08:08:12;;;;;;;7.10;1.48;;;26.10;93.40;;;;;;4990849;28;20019;-77
2022/07/12 08:10:38;;;;;;;4.20;1.33;;;26.10;93.70;;;;;;4992700;28;20043;-78
2022/07/12 08:13:04;;;;;;;4.50;1.58;;;26.20;94.10;;;;;;4992208;28;20425;-77
2022/07/12 08:15:30;;;;;;;1.90;1.17;;;26.30;93.20;;;;;;4993333;28;20034;-79
2022/07/12 08:17:56;;;;;;;2.25;1.27;;;26.40;91.30;;;;;;4993393;28;20073;-76
2022/07/12 08:20:23;;;;;;;5.68;1.52;;;26.30;91.90;;;;;;4992475;28;20038;-77
2022/07/12 08:22:49;;;;;;;4.15;1.50;;;26.20;91.70;;;;;;4994003;28;20089;-77
2022/07/12 08:25:15;;;;;;;7.13;1.60;;;26.10;91.50;;;;;;4991311;28;20469;-74
2022/07/12 08:27:41;;;;;;;3.08;1.35;;;26.00;91.80;;;;;;4992069;28;20473;-78
2022/07/12 08:30:08;;;;;;;4.32;1.38;;;26.00;91.20;;;;;;4992627;28;20073;-79
2022/07/12 08:32:34;;;;;;;7.57;1.83;;;25.90;91.20;;;;;;4995450;28;20073;-77
2022/07/12 08:34:59;;;;;;;2.33;1.38;;;25.90;91.40;;;;;;4989469;28;20034;-77
2022/07/12 08:37:25;;;;;;;2.47;1.40;;;25.80;92.00;;;;;;4992878;28;20026;-78
2022/07/12 08:39:51;;;;;;;4.00;1.48;;;25.90;91.90;;;;;;4991684;28;20026;-78
2022/07/12 08:42:20;;;;;;;1.92;1.30;;;25.90;92.30;;;;;;4993080;28;20023;-78
2022/07/12 08:44:56;;;;;;;5.20;1.80;;;25.90;92.40;;;;;;4991306;28;20030;-78
2022/07/12 08:47:23;;;;;;;3.50;1.50;;;26.10;92.90;;;;;;4992804;28;20026;-77
2022/07/12 08:50:17;;;;;;;2.92;1.45;;;26.40;93.10;;;;;;4992117;28;20062;-78
2022/07/12 08:52:45;;;;;;;3.60;1.70;;;26.50;92.20;;;;;;4991137;28;20021;-76
2022/07/12 08:55:29;;;;;;;2.95;1.83;;;26.60;92.90;;;;;;4988317;28;20509;-77
2022/07/12 08:57:59;;;;;;;3.45;1.52;;;26.60;92.60;;;;;;4992167;28;20026;-77
2022/07/12 09:00:26;;;;;;;10.27;1.60;;;26.80;92.00;;;;;;4992587;28;20029;-81
2022/07/12 09:03:00;;;;;;;4.18;1.40;;;26.70;92.40;;;;;;4991597;28;20058;-76
2022/07/12 09:05:31;;;;;;;4.35;1.40;;;26.70;92.00;;;;;;4992114;28;20545;-76
2022/07/12 09:08:08;;;;;;;1.50;1.40;;;26.60;91.90;;;;;;4992835;28;20489;-76
2022/07/12 09:10:35;;;;;;;12.27;1.70;;;26.50;91.80;;;;;;4991707;28;20079;-75
2022/07/12 09:13:01;;;;;;;3.72;1.50;;;26.50;92.30;;;;;;4988904;28;20086;-76
2022/07/12 09:15:27;;;;;;;3.55;1.60;;;26.50;92.30;;;;;;4990483;28;20046;-77
2022/07/12 09:18:02;;;;;;;1.67;1.40;;;26.30;92.50;;;;;;4988252;28;20018;-79
2022/07/12 09:20:33;;;;;;;2.67;1.45;;;26.20;92.30;;;;;;4990248;28;20034;-75
2022/07/12 09:23:08;;;;;;;7.30;1.60;;;26.10;92.60;;;;;;4990841;28;20019;-77
2022/07/12 09:25:34;;;;;;;3.05;1.42;;;26.10;93.70;;;;;;4989748;28;20072;-74
2022/07/12 09:28:06;;;;;;;5.35;1.70;;;26.20;93.50;;;;;;4991612;28;20473;-73
2022/07/12 09:30:32;;;;;;;4.57;1.50;;;26.20;94.00;;;;;;4990522;28;20063;-73
2022/07/12 09:36:06;;;;;;;7.10;1.88;;;26.20;94.90;;;;;;4989021;28;20033;-74
2022/07/12 09:38:49;;;;;;;17.00;1.70;;;26.40;96.00;;;;;;4991301;28;20019;-73
2022/07/12 09:41:22;;;;;;;3.60;1.77;;;26.20;94.50;;;;;;4995403;28;20069;-73
2022/07/12 09:43:48;;;;;;;;;;;26.10;96.60;;;;;;4991352;28;20029;-72
2022/07/12 09:46:16;;;;;;;2.90;1.52;;;25.80;96.20;;;;;;4990195;28;19941;-73
2022/07/12 09:48:44;;;;;;;2.08;1.35;;;25.80;93.70;;;;;;4990771;28;20084;-72
2022/07/12 09:51:12;;;;;;;3.65;1.45;;;25.90;94.40;;;;;;4992330;28;20112;-72
2022/07/12 09:53:43;;;;;;;4.25;1.30;;;25.90;93.30;;;;;;4992266;28;20014;-74
2022/07/12 09:56:15;;;;;;;3.22;1.27;;;26.00;94.10;;;;;;4990862;28;20030;-73
2022/07/12 09:58:50;;;;;;;2.25;1.42;;;26.10;95.50;;;;;;4992107;28;20022;-73
2022/07/12 10:01:16;;;;;;;3.58;1.63;;;26.20;94.10;;;;;;4989589;28;20065;-73
2022/07/12 10:03:43;;;;;;;4.80;1.55;;;26.20;94.00;;;;;;4990241;28;20515;-73
2022/07/12 10:06:09;;;;;;;2.78;1.40;;;26.00;94.60;;;;;;4988979;28;20051;-73
2022/07/12 10:08:35;;;;;;;5.65;1.70;;;25.90;94.80;;;;;;4990482;28;20026;-70
2022/07/12 10:11:01;;;;;;;4.35;1.60;;;25.80;95.10;;;;;;4992435;28;20045;-72
2022/07/12 10:13:28;;;;;;;4.93;1.63;;;25.80;95.20;;;;;;4990366;28;20101;-71
2022/07/12 10:16:02;;;;;;;1.77;1.38;;;25.80;95.60;;;;;;4989605;28;20616;-70
2022/07/12 10:18:29;;;;;;;1.58;1.27;;;25.90;96.30;;;;;;4992438;28;20366;-72
2022/07/12 10:20:55;;;;;;;5.15;1.38;;;25.90;94.30;;;;;;4991365;28;20027;-72
2022/07/12 10:23:24;;;;;;;6.18;1.38;;;25.80;94.50;;;;;;4992291;28;20024;-72
2022/07/12 10:25:51;;;;;;;2.47;1.50;;;26.00;94.90;;;;;;4990268;28;20531;-73
2022/07/12 10:28:17;;;;;;;3.30;1.50;;;26.00;94.60;;;;;;4992094;28;20026;-74
2022/07/12 10:30:45;;;;;;;2.15;1.20;;;25.90;95.70;;;;;;4994039;28;20057;-73
2022/07/12 10:33:19;;;;;;;1.92;1.27;;;25.80;95.30;;;;;;4990439;28;20026;-74
2022/07/12 10:36:05;;;;;;;2.13;1.40;;;25.80;95.90;;;;;;4991553;28;20022;-71
2022/07/12 10:38:32;;;;;;;2.15;1.30;;;25.80;95.60;;;;;;4981170;28;20027;-71
2022/07/12 10:41:15;;;;;;;2.33;1.40;;;25.90;95.90;;;;;;4993629;28;20406;-71
2022/07/12 10:46:25;;;;;;;2.60;1.20;;;26.10;93.90;;;;;;4991448;28;20505;-71
2022/07/12 10:48:51;;;;;;;2.72;1.50;;;26.10;94.50;;;;;;4991353;28;20434;-71
2022/07/12 10:51:20;;;;;;;4.95;1.70;;;26.30;93.80;;;;;;4984997;28;20042;-71
2022/07/12 10:53:48;;;;;;;2.15;1.23;;;26.40;94.10;;;;;;4990122;28;20022;-72
2022/07/12 10:56:19;;;;;;;2.78;1.50;;;26.40;95.90;;;;;;4991021;28;20070;-72
2022/07/12 10:58:54;;;;;;;2.83;1.85;;;26.30;96.20;;;;;;4991174;28;20022;-73
2022/07/12 11:01:28;;;;;;;4.25;1.50;;;26.30;97.60;;;;;;4992056;28;20293;-72
2022/07/12 11:04:03;;;;;;;2.92;1.60;;;26.40;98.10;;;;;;4991225;28;20076;-71
2022/07/12 11:06:29;;;;;;;7.82;1.63;;;26.30;98.70;;;;;;4990938;28;20658;-71
2022/07/12 11:09:09;;;;;;;3.53;1.60;;;26.40;97.70;;;;;;4991292;28;21377;-73
2022/07/12 11:11:44;;;;;;;7.32;1.70;;;26.50;96.60;;;;;;4989875;28;20039;-72
2022/07/12 11:14:11;;;;;;;2.75;1.38;;;26.40;95.90;;;;;;4990997;28;20019;-71
2022/07/12 11:16:44;;;;;;;3.33;1.40;;;26.20;98.30;;;;;;4991097;28;20061;-72
2022/07/12 11:19:10;;;;;;;4.05;1.65;;;26.20;98.90;;;;;;4989974;28;20022;-73
2022/07/12 11:21:36;;;;;;;8.23;2.95;;;26.40;99.30;;;;;;4991061;28;20389;-74
2022/07/12 11:24:02;;;;;;;2.72;1.60;;;26.50;98.90;;;;;;4990031;28;20383;-73
2022/07/12 11:26:28;;;;;;;2.28;1.50;;;26.40;98.90;;;;;;4990696;28;20035;-73
2022/07/12 11:28:57;;;;;;;4.80;1.80;;;26.10;99.80;;;;;;4990988;28;20109;-73
2022/07/12 11:31:25;;;;;;;1.42;1.30;;;26.20;99.90;;;;;;4993464;28;20038;-74
2022/07/12 11:33:51;;;;;;;4.05;1.60;;;26.40;99.90;;;;;;4990983;28;20446;-74
2022/07/12 11:36:18;;;;;;;2.20;1.73;;;26.30;99.90;;;;;;4990791;28;20062;-74
2022/07/12 11:38:45;;;;;;;4.50;1.60;;;26.30;99.90;;;;;;4992665;28;20382;-74
2022/07/12 11:41:13;;;;;;;2.55;1.70;;;26.50;99.90;;;;;;4996894;28;20037;-73
2022/07/12 11:43:39;;;;;;;4.28;1.70;;;26.50;99.90;;;;;;4993130;28;20082;-74
2022/07/12 11:46:06;;;;;;;4.03;1.67;;;26.40;99.90;;;;;;4989561;28;20143;-74
2022/07/12 11:48:35;;;;;;;2.17;1.30;;;26.50;99.90;;;;;;4994839;28;20023;-74
2022/07/12 11:51:09;;;;;;;2.97;1.50;;;26.40;99.90;;;;;;4994280;28;20280;-74
2022/07/12 11:53:36;;;;;;;8.13;1.67;;;26.30;99.90;;;;;;4994930;28;20053;-76
2022/07/12 11:56:04;;;;;;;3.25;1.30;;;26.20;99.90;;;;;;4993846;28;20448;-74
2022/07/12 11:58:32;;;;;;;2.20;1.30;;;26.10;99.90;;;;;;4994647;28;20114;-74
2022/07/12 12:00:58;;;;;;;6.53;1.50;;;26.20;99.90;;;;;;4997391;28;20076;-73
2022/07/12 12:03:25;;;;;;;2.72;1.50;;;26.10;99.90;;;;;;4994388;28;20184;-73
2022/07/12 12:05:52;;;;;;;2.83;1.23;;;26.00;99.90;;;;;;4993826;28;20077;-73
2022/07/12 12:08:19;;;;;;;3.28;1.40;;;26.40;99.90;;;;;;4994707;28;20018;-78
2022/07/12 12:11:00;;;;;;;2.60;1.40;;;27.10;99.90;;;;;;4996061;28;20374;-74
2022/07/12 12:13:28;;;;;;;2.35;1.60;;;28.00;99.90;;;;;;4982699;28;20026;-74
2022/07/12 12:16:02;;;;;;;3.65;1.80;;;29.00;99.90;;;;;;4991084;28;20026;-74
2022/07/12 12:18:36;;;;;;;3.63;1.30;;;29.90;98.60;;;;;;4994466;28;20053;-75
2022/07/12 12:21:04;;;;;;;5.07;1.40;;;30.80;97.80;;;;;;4992235;28;20030;-74
2022/07/12 12:23:30;;;;;;;3.38;1.20;;;31.40;97.10;;;;;;4992882;28;20027;-74
2022/07/12 12:26:20;;;;;;;3.33;1.25;;;31.60;95.70;;;;;;4993091;28;20379;-75
2022/07/12 12:28:54;;;;;;;4.43;1.60;;;31.90;95.00;;;;;;4993738;28;20053;-74
2022/07/12 12:31:21;;;;;;;3.50;1.25;;;32.40;95.20;;;;;;4993072;28;20109;-74
2022/07/12 12:33:49;;;;;;;3.35;1.52;;;32.60;93.60;;;;;;4993793;28;20022;-73
2022/07/12 12:36:21;;;;;;;2.35;1.23;;;32.40;93.70;;;;;;4993446;28;20026;-73
2022/07/12 12:38:48;;;;;;;3.30;1.70;;;32.40;94.40;;;;;;4993482;28;20076;-73
2022/07/12 12:41:14;;;;;;;3.85;1.63;;;32.40;95.00;;;;;;4994658;28;20044;-71
2022/07/12 12:43:41;;;;;;;5.88;1.50;;;32.80;94.30;;;;;;4993389;28;20046;-72
2022/07/12 12:46:07;;;;;;;6.30;1.42;;;33.60;93.80;;;;;;4993134;28;20026;-73
2022/07/12 12:48:34;;;;;;;6.28;1.20;;;34.40;93.30;;;;;;4993244;28;20080;-73
2022/07/12 12:51:08;;;;;;;3.65;1.40;;;34.30;92.70;;;;;;4992338;28;20090;-73
2022/07/12 12:53:37;;;;;;;2.80;1.25;;;34.90;92.40;;;;;;4993839;28;20111;-71
2022/07/12 12:56:09;;;;;;;5.22;1.20;;;34.90;92.10;;;;;;4992646;28;20600;-73
2022/07/12 12:58:35;;;;;;;3.60;1.38;;;34.30;92.30;;;;;;4990567;28;20023;-75
2022/07/12 13:01:01;;;;;;;6.75;1.70;;;34.10;92.40;;;;;;4992251;28;20030;-74